sensor_id;sensor_type;location;lat;lon;timestamp;pressure;altitude;pressure_sealevel;temperature;humidity
11448;BME280;43755;49.736;8.734;2023-10-31T00:00:05;96200.09;;;10.84;100.00
11448;BME280;43755;49.736;8.734;2023-10-31T00:02:06;96209.28;;;10.78;100.00
11448;BME280;43755;49.736;8.734;2023-10-31T00:04:08;96206.97;;;10.74;100.00
11448;BME280;43755;49.736;8.734;2023-10-31T00:06:10;96204.31;;;10.74;100.00
11448;BME280;43755;49.736;8.734;2023-10-31T00:08:12;96208.34;;;10.66;100.00
11448;BME280;43755;49.736;8.734;2023-10-31T00:10:13;96210.38;;;10.63;100.00
11448;BME280;43755;49.736;8.734;2023-10-31T00:12:15;96206.59;;;10.54;100.00
11448;BME280;43755;49.736;8.734;2023-10-31T00:14:16;96220.97;;;10.50;100.00
11448;BME280;43755;49.736;8.734;2023-10-31T00:16:17;96216.78;;;10.48;100.00
11448;BME280;43755;49.736;8.734;2023-10-31T00:18:19;96225.75;;;10.45;100.00
11448;BME280;43755;49.736;8.734;2023-10-31T00:20:19;96225.13;;;10.42;100.00
11448;BME280;43755;49.736;8.734;2023-10-31T00:22:22;96235.56;;;10.43;100.00
11448;BME280;43755;49.736;8.734;2023-10-31T00:24:23;96241.72;;;10.44;100.00
11448;BME280;43755;49.736;8.734;2023-10-31T00:26:24;96235.47;;;10.45;100.00
11448;BME280;43755;49.736;8.734;2023-10-31T00:28:26;96235.81;;;10.40;100.00
11448;BME280;43755;49.736;8.734;2023-10-31T00:30:27;96237.84;;;10.37;100.00
11448;BME280;43755;49.736;8.734;2023-10-31T00:32:28;96244.16;;;10.34;100.00
11448;BME280;43755;49.736;8.734;2023-10-31T00:34:30;96247.13;;;10.30;100.00
11448;BME280;43755;49.736;8.734;2023-10-31T00:36:31;96253.38;;;10.29;100.00
11448;BME280;43755;49.736;8.734;2023-10-31T00:38:34;96248.28;;;10.25;100.00
11448;BME280;43755;49.736;8.734;2023-10-31T00:40:34;96249.00;;;10.15;100.00
11448;BME280;43755;49.736;8.734;2023-10-31T00:42:36;96257.00;;;10.13;100.00
11448;BME280;43755;49.736;8.734;2023-10-31T00:44:36;96246.84;;;10.07;100.00
11448;BME280;43755;49.736;8.734;2023-10-31T00:46:37;96245.47;;;10.02;100.00
11448;BME280;43755;49.736;8.734;2023-10-31T00:48:39;96247.59;;;9.97;100.00
11448;BME280;43755;49.736;8.734;2023-10-31T00:50:39;96242.84;;;9.89;100.00
11448;BME280;43755;49.736;8.734;2023-10-31T00:52:41;96249.19;;;9.86;100.00
11448;BME280;43755;49.736;8.734;2023-10-31T00:54:43;96251.91;;;9.85;100.00
11448;BME280;43755;49.736;8.734;2023-10-31T00:56:44;96250.22;;;9.84;100.00
11448;BME280;43755;49.736;8.734;2023-10-31T00:58:45;96257.75;;;9.77;100.00
11448;BME280;43755;49.736;8.734;2023-10-31T01:00:46;96254.53;;;9.72;100.00
11448;BME280;43755;49.736;8.734;2023-10-31T01:02:47;96262.25;;;9.75;100.00
11448;BME280;43755;49.736;8.734;2023-10-31T01:04:49;96257.38;;;9.69;100.00
11448;BME280;43755;49.736;8.734;2023-10-31T01:06:50;96267.72;;;9.72;100.00
11448;BME280;43755;49.736;8.734;2023-10-31T01:08:51;96261.63;;;9.72;100.00
11448;BME280;43755;49.736;8.734;2023-10-31T01:10:54;96267.00;;;9.70;100.00
11448;BME280;43755;49.736;8.734;2023-10-31T01:12:55;96260.97;;;9.68;100.00
11448;BME280;43755;49.736;8.734;2023-10-31T01:14:57;96260.97;;;9.68;100.00
11448;BME280;43755;49.736;8.734;2023-10-31T01:16:58;96262.88;;;9.66;100.00
11448;BME280;43755;49.736;8.734;2023-10-31T01:19:00;96265.81;;;9.62;100.00
11448;BME280;43755;49.736;8.734;2023-10-31T01:21:01;96270.25;;;9.61;100.00
11448;BME280;43755;49.736;8.734;2023-10-31T01:23:02;96261.69;;;9.58;100.00
11448;BME280;43755;49.736;8.734;2023-10-31T01:25:04;96263.78;;;9.53;100.00
11448;BME280;43755;49.736;8.734;2023-10-31T01:27:07;96253.63;;;9.47;100.00
11448;BME280;43755;49.736;8.734;2023-10-31T01:29:09;96253.53;;;9.48;100.00
11448;BME280;43755;49.736;8.734;2023-10-31T01:31:10;96246.31;;;9.37;100.00
11448;BME280;43755;49.736;8.734;2023-10-31T01:33:10;96261.41;;;9.35;100.00
11448;BME280;43755;49.736;8.734;2023-10-31T01:35:12;96250.75;;;9.37;100.00
11448;BME280;43755;49.736;8.734;2023-10-31T01:37:13;96246.00;;;9.29;100.00
11448;BME280;43755;49.736;8.734;2023-10-31T01:39:15;96255.47;;;9.32;100.00
11448;BME280;43755;49.736;8.734;2023-10-31T01:41:16;96261.59;;;9.32;100.00
11448;BME280;43755;49.736;8.734;2023-10-31T01:43:30;96264.47;;;9.29;100.00
11448;BME280;43755;49.736;8.734;2023-10-31T01:45:32;96271.91;;;9.23;100.00
11448;BME280;43755;49.736;8.734;2023-10-31T01:47:33;96269.00;;;9.13;100.00
11448;BME280;43755;49.736;8.734;2023-10-31T01:49:35;96264.03;;;9.09;100.00
11448;BME280;43755;49.736;8.734;2023-10-31T01:51:37;96267.34;;;9.12;100.00
11448;BME280;43755;49.736;8.734;2023-10-31T01:53:39;96261.09;;;9.13;100.00
11448;BME280;43755;49.736;8.734;2023-10-31T01:55:41;96273.47;;;9.13;100.00
11448;BME280;43755;49.736;8.734;2023-10-31T01:57:44;96276.53;;;9.19;100.00
11448;BME280;43755;49.736;8.734;2023-10-31T01:59:48;96274.47;;;9.24;100.00
11448;BME280;43755;49.736;8.734;2023-10-31T02:01:49;96274.16;;;9.29;100.00
11448;BME280;43755;49.736;8.734;2023-10-31T02:03:50;96275.56;;;9.34;100.00
11448;BME280;43755;49.736;8.734;2023-10-31T02:05:52;96274.63;;;9.35;100.00
11448;BME280;43755;49.736;8.734;2023-10-31T02:07:53;96277.34;;;9.34;100.00
11448;BME280;43755;49.736;8.734;2023-10-31T02:09:56;96276.41;;;9.35;100.00
11448;BME280;43755;49.736;8.734;2023-10-31T02:11:58;96274.63;;;9.35;100.00
11448;BME280;43755;49.736;8.734;2023-10-31T02:14:00;96271.03;;;9.36;100.00
11448;BME280;43755;49.736;8.734;2023-10-31T02:16:03;96271.75;;;9.38;100.00
11448;BME280;43755;49.736;8.734;2023-10-31T02:18:05;96272.44;;;9.42;100.00
11448;BME280;43755;49.736;8.734;2023-10-31T02:20:07;96278.81;;;9.38;100.00
11448;BME280;43755;49.736;8.734;2023-10-31T02:22:10;96286.03;;;9.36;100.00
11448;BME280;43755;49.736;8.734;2023-10-31T02:24:11;96283.47;;;9.34;100.00
11448;BME280;43755;49.736;8.734;2023-10-31T02:26:13;96286.88;;;9.36;100.00
11448;BME280;43755;49.736;8.734;2023-10-31T02:28:14;96284.94;;;9.38;100.00
11448;BME280;43755;49.736;8.734;2023-10-31T02:30:16;96292.16;;;9.36;100.00
11448;BME280;43755;49.736;8.734;2023-10-31T02:32:16;96278.19;;;9.34;100.00
11448;BME280;43755;49.736;8.734;2023-10-31T02:34:18;96292.22;;;9.35;100.00
11448;BME280;43755;49.736;8.734;2023-10-31T02:36:19;96293.09;;;9.35;100.00
11448;BME280;43755;49.736;8.734;2023-10-31T02:38:22;96291.00;;;9.40;100.00
11448;BME280;43755;49.736;8.734;2023-10-31T02:40:23;96292.22;;;9.35;100.00
11448;BME280;43755;49.736;8.734;2023-10-31T02:42:24;96289.28;;;9.39;100.00
11448;BME280;43755;49.736;8.734;2023-10-31T02:44:25;96286.56;;;9.41;100.00
11448;BME280;43755;49.736;8.734;2023-10-31T02:46:27;96300.16;;;9.35;100.00
11448;BME280;43755;49.736;8.734;2023-10-31T02:48:28;96301.84;;;9.36;100.00
11448;BME280;43755;49.736;8.734;2023-10-31T02:50:32;96313.03;;;9.39;100.00
11448;BME280;43755;49.736;8.734;2023-10-31T02:52:33;96317.38;;;9.40;100.00
11448;BME280;43755;49.736;8.734;2023-10-31T02:54:35;96316.44;;;9.41;100.00
11448;BME280;43755;49.736;8.734;2023-10-31T02:56:36;96323.28;;;9.44;100.00
11448;BME280;43755;49.736;8.734;2023-10-31T02:58:38;96325.84;;;9.45;100.00
11448;BME280;43755;49.736;8.734;2023-10-31T03:00:39;96328.78;;;9.41;100.00
11448;BME280;43755;49.736;8.734;2023-10-31T03:02:40;96320.03;;;9.40;100.00
11448;BME280;43755;49.736;8.734;2023-10-31T03:04:42;96331.22;;;9.44;100.00
11448;BME280;43755;49.736;8.734;2023-10-31T03:06:42;96326.03;;;9.42;100.00
11448;BME280;43755;49.736;8.734;2023-10-31T03:08:43;96331.31;;;9.42;100.00
11448;BME280;43755;49.736;8.734;2023-10-31T03:10:47;96328.78;;;9.41;100.00
11448;BME280;43755;49.736;8.734;2023-10-31T03:12:50;96328.66;;;9.42;100.00
11448;BME280;43755;49.736;8.734;2023-10-31T03:14:51;96338.41;;;9.42;100.00
11448;BME280;43755;49.736;8.734;2023-10-31T03:16:52;96340.91;;;9.43;100.00
11448;BME280;43755;49.736;8.734;2023-10-31T03:18:54;96333.31;;;9.39;100.00
11448;BME280;43755;49.736;8.734;2023-10-31T03:20:55;96335.75;;;9.42;100.00
11448;BME280;43755;49.736;8.734;2023-10-31T03:22:55;96328.34;;;9.34;100.00
11448;BME280;43755;49.736;8.734;2023-10-31T03:24:57;96342.72;;;9.43;100.00
11448;BME280;43755;49.736;8.734;2023-10-31T03:27:00;96334.25;;;9.38;100.00
11448;BME280;43755;49.736;8.734;2023-10-31T03:29:00;96336.25;;;9.34;100.00
11448;BME280;43755;49.736;8.734;2023-10-31T03:31:01;96335.50;;;9.32;100.00
11448;BME280;43755;49.736;8.734;2023-10-31T03:33:03;96330.31;;;9.31;100.00
11448;BME280;43755;49.736;8.734;2023-10-31T03:35:05;96337.66;;;9.26;100.00
11448;BME280;43755;49.736;8.734;2023-10-31T03:37:07;96337.66;;;9.26;100.00
11448;BME280;43755;49.736;8.734;2023-10-31T03:39:08;96345.50;;;9.27;100.00
11448;BME280;43755;49.736;8.734;2023-10-31T03:41:10;96345.59;;;9.26;100.00
11448;BME280;43755;49.736;8.734;2023-10-31T03:43:13;96355.59;;;9.21;100.00
11448;BME280;43755;49.736;8.734;2023-10-31T03:45:14;96363.50;;;9.21;100.00
11448;BME280;43755;49.736;8.734;2023-10-31T03:47:15;96368.59;;;9.24;100.00
11448;BME280;43755;49.736;8.734;2023-10-31T03:49:17;96370.25;;;9.25;100.00
11448;BME280;43755;49.736;8.734;2023-10-31T03:51:18;96374.59;;;9.26;100.00
11448;BME280;43755;49.736;8.734;2023-10-31T03:53:19;96366.59;;;9.27;100.00
11448;BME280;43755;49.736;8.734;2023-10-31T03:55:20;96365.75;;;9.27;100.00
11448;BME280;43755;49.736;8.734;2023-10-31T03:57:21;96363.97;;;9.27;100.00
11448;BME280;43755;49.736;8.734;2023-10-31T03:59:23;96373.59;;;9.28;100.00
11448;BME280;43755;49.736;8.734;2023-10-31T04:01:24;96374.59;;;9.26;100.00
11448;BME280;43755;49.736;8.734;2023-10-31T04:03:26;96371.03;;;9.27;100.00
11448;BME280;43755;49.736;8.734;2023-10-31T04:05:27;96363.13;;;9.27;100.00
11448;BME280;43755;49.736;8.734;2023-10-31T04:07:29;96370.09;;;9.28;100.00
11448;BME280;43755;49.736;8.734;2023-10-31T04:09:30;96366.81;;;9.24;100.00
11448;BME280;43755;49.736;8.734;2023-10-31T04:11:32;96378.31;;;9.23;100.00
11448;BME280;43755;49.736;8.734;2023-10-31T04:13:33;96380.44;;;9.31;100.00
11448;BME280;43755;49.736;8.734;2023-10-31T04:15:36;96383.94;;;9.31;100.00
11448;BME280;43755;49.736;8.734;2023-10-31T04:17:37;96387.81;;;9.26;100.00
11448;BME280;43755;49.736;8.734;2023-10-31T04:19:39;96383.47;;;9.25;100.00
11448;BME280;43755;49.736;8.734;2023-10-31T04:21:40;96390.81;;;9.20;100.00
11448;BME280;43755;49.736;8.734;2023-10-31T04:23:41;96396.09;;;9.20;100.00
11448;BME280;43755;49.736;8.734;2023-10-31T04:25:43;96394.22;;;9.22;100.00
11448;BME280;43755;49.736;8.734;2023-10-31T04:27:44;96395.16;;;9.21;100.00
11448;BME280;43755;49.736;8.734;2023-10-31T04:29:46;96397.72;;;9.22;100.00
11448;BME280;43755;49.736;8.734;2023-10-31T04:31:48;96405.63;;;9.22;100.00
11448;BME280;43755;49.736;8.734;2023-10-31T04:33:50;96393.38;;;9.21;100.00
11448;BME280;43755;49.736;8.734;2023-10-31T04:35:51;96403.84;;;9.23;100.00
11448;BME280;43755;49.736;8.734;2023-10-31T04:37:53;96404.78;;;9.22;100.00
11448;BME280;43755;49.736;8.734;2023-10-31T04:39:54;96401.94;;;9.25;100.00
11448;BME280;43755;49.736;8.734;2023-10-31T04:41:55;96397.41;;;9.27;100.00
11448;BME280;43755;49.736;8.734;2023-10-31T04:43:57;96403.75;;;9.24;100.00
11448;BME280;43755;49.736;8.734;2023-10-31T04:45:58;96409.19;;;9.21;100.00
11448;BME280;43755;49.736;8.734;2023-10-31T04:48:00;96410.91;;;9.22;100.00
11448;BME280;43755;49.736;8.734;2023-10-31T04:50:01;96407.03;;;9.28;100.00
11448;BME280;43755;49.736;8.734;2023-10-31T04:52:03;96406.94;;;9.29;100.00
11448;BME280;43755;49.736;8.734;2023-10-31T04:54:05;96411.66;;;9.24;100.00
11448;BME280;43755;49.736;8.734;2023-10-31T04:56:12;96410.06;;;9.22;100.00
11448;BME280;43755;49.736;8.734;2023-10-31T04:58:13;96411.84;;;9.21;100.00
11448;BME280;43755;49.736;8.734;2023-10-31T05:00:15;96407.31;;;9.23;100.00
11448;BME280;43755;49.736;8.734;2023-10-31T05:02:16;96408.44;;;9.19;100.00
11448;BME280;43755;49.736;8.734;2023-10-31T05:04:19;96415.53;;;9.19;100.00
11448;BME280;43755;49.736;8.734;2023-10-31T05:06:21;96411.47;;;9.13;100.00
11448;BME280;43755;49.736;8.734;2023-10-31T05:08:21;96414.84;;;9.15;100.00
11448;BME280;43755;49.736;8.734;2023-10-31T05:10:23;96418.06;;;9.20;100.00
11448;BME280;43755;49.736;8.734;2023-10-31T05:12:24;96419.75;;;9.21;100.00
11448;BME280;43755;49.736;8.734;2023-10-31T05:14:25;96427.88;;;9.18;100.00
11448;BME280;43755;49.736;8.734;2023-10-31T05:16:26;96431.53;;;9.16;100.00
11448;BME280;43755;49.736;8.734;2023-10-31T05:18:27;96427.97;;;9.17;100.00
11448;BME280;43755;49.736;8.734;2023-10-31T05:20:29;96434.81;;;9.19;100.00
11448;BME280;43755;49.736;8.734;2023-10-31T05:22:31;96440.09;;;9.19;100.00
11448;BME280;43755;49.736;8.734;2023-10-31T05:24:32;96428.44;;;9.23;100.00
11448;BME280;43755;49.736;8.734;2023-10-31T05:26:33;96427.38;;;9.26;100.00
11448;BME280;43755;49.736;8.734;2023-10-31T05:28:35;96425.97;;;9.20;100.00
11448;BME280;43755;49.736;8.734;2023-10-31T05:30:36;96430.41;;;9.20;100.00
11448;BME280;43755;49.736;8.734;2023-10-31T05:32:38;96430.22;;;9.23;100.00
11448;BME280;43755;49.736;8.734;2023-10-31T05:34:39;96430.41;;;9.20;100.00
11448;BME280;43755;49.736;8.734;2023-10-31T05:36:42;96433.03;;;9.20;100.00
11448;BME280;43755;49.736;8.734;2023-10-31T05:38:44;96432.94;;;9.21;100.00
11448;BME280;43755;49.736;8.734;2023-10-31T05:40:44;96431.81;;;9.25;100.00
11448;BME280;43755;49.736;8.734;2023-10-31T05:42:45;96457.47;;;9.23;100.00
11448;BME280;43755;49.736;8.734;2023-10-31T05:44:47;96442.94;;;9.16;100.00
11448;BME280;43755;49.736;8.734;2023-10-31T05:46:49;96443.72;;;9.18;100.00
11448;BME280;43755;49.736;8.734;2023-10-31T05:48:50;96443.88;;;9.15;100.00
11448;BME280;43755;49.736;8.734;2023-10-31T05:50:52;96451.69;;;9.31;100.00
11448;BME280;43755;49.736;8.734;2023-10-31T05:52:53;96453.97;;;9.23;100.00
11448;BME280;43755;49.736;8.734;2023-10-31T05:54:55;96455.00;;;9.20;100.00
11448;BME280;43755;49.736;8.734;2023-10-31T05:56:56;96458.00;;;9.14;100.00
11448;BME280;43755;49.736;8.734;2023-10-31T05:58:58;96464.41;;;9.10;100.00
11448;BME280;43755;49.736;8.734;2023-10-31T06:00:58;96465.19;;;9.12;100.00
11448;BME280;43755;49.736;8.734;2023-10-31T06:03:00;96471.69;;;9.07;100.00
11448;BME280;43755;49.736;8.734;2023-10-31T06:05:01;96476.38;;;9.01;100.00
11448;BME280;43755;49.736;8.734;2023-10-31T06:07:02;96478.06;;;9.02;100.00
11448;BME280;43755;49.736;8.734;2023-10-31T06:09:04;96479.97;;;9.00;100.00
11448;BME280;43755;49.736;8.734;2023-10-31T06:11:06;96492.69;;;9.08;100.00
11448;BME280;43755;49.736;8.734;2023-10-31T06:13:08;96492.97;;;9.03;100.00
11448;BME280;43755;49.736;8.734;2023-10-31T06:15:09;96495.44;;;9.07;100.00
11448;BME280;43755;49.736;8.734;2023-10-31T06:17:11;96496.38;;;9.06;100.00
11448;BME280;43755;49.736;8.734;2023-10-31T06:19:12;96496.16;;;9.09;100.00
11448;BME280;43755;49.736;8.734;2023-10-31T06:21:13;96504.84;;;9.11;100.00
11448;BME280;43755;49.736;8.734;2023-10-31T06:23:15;96504.28;;;9.06;100.00
11448;BME280;43755;49.736;8.734;2023-10-31T06:25:17;96507.75;;;9.06;100.00
11448;BME280;43755;49.736;8.734;2023-10-31T06:27:18;96515.38;;;9.11;100.00
11448;BME280;43755;49.736;8.734;2023-10-31T06:29:19;96514.94;;;9.18;100.00
11448;BME280;43755;49.736;8.734;2023-10-31T06:31:21;96511.91;;;9.10;100.00
11448;BME280;43755;49.736;8.734;2023-10-31T06:33:22;96516.03;;;9.14;100.00
11448;BME280;43755;49.736;8.734;2023-10-31T06:35:24;96519.53;;;9.15;100.00
11448;BME280;43755;49.736;8.734;2023-10-31T06:37:25;96526.44;;;9.17;100.00
11448;BME280;43755;49.736;8.734;2023-10-31T06:39:26;96533.50;;;9.17;100.00
11448;BME280;43755;49.736;8.734;2023-10-31T06:41:28;96535.28;;;9.16;100.00
11448;BME280;43755;49.736;8.734;2023-10-31T06:43:30;96536.03;;;9.18;100.00
11448;BME280;43755;49.736;8.734;2023-10-31T06:45:31;96536.03;;;9.18;100.00
11448;BME280;43755;49.736;8.734;2023-10-31T06:47:33;96536.69;;;9.22;100.00
11448;BME280;43755;49.736;8.734;2023-10-31T06:49:33;96542.25;;;9.17;100.00
11448;BME280;43755;49.736;8.734;2023-10-31T06:51:35;96543.09;;;9.18;100.00
11448;BME280;43755;49.736;8.734;2023-10-31T06:53:36;96545.63;;;9.19;100.00
11448;BME280;43755;49.736;8.734;2023-10-31T06:55:37;96548.19;;;9.21;100.00
11448;BME280;43755;49.736;8.734;2023-10-31T06:57:40;96552.97;;;9.14;100.00
11448;BME280;43755;49.736;8.734;2023-10-31T06:59:43;96564.31;;;9.16;100.00
11448;BME280;43755;49.736;8.734;2023-10-31T07:01:44;96560.16;;;9.12;100.00
11448;BME280;43755;49.736;8.734;2023-10-31T07:03:47;96558.25;;;9.14;100.00
11448;BME280;43755;49.736;8.734;2023-10-31T07:05:48;96569.00;;;9.11;100.00
11448;BME280;43755;49.736;8.734;2023-10-31T07:07:50;96565.31;;;9.14;100.00
11448;BME280;43755;49.736;8.734;2023-10-31T07:09:51;96578.06;;;9.07;100.00
11448;BME280;43755;49.736;8.734;2023-10-31T07:11:53;96569.94;;;9.10;100.00
11448;BME280;43755;49.736;8.734;2023-10-31T07:13:54;96570.59;;;9.14;100.00
11448;BME280;43755;49.736;8.734;2023-10-31T07:15:56;96577.94;;;9.09;100.00
11448;BME280;43755;49.736;8.734;2023-10-31T07:17:57;96585.56;;;9.13;100.00
11448;BME280;43755;49.736;8.734;2023-10-31T07:19:59;96583.69;;;9.15;100.00
11448;BME280;43755;49.736;8.734;2023-10-31T07:22:00;96591.81;;;9.12;100.00
11448;BME280;43755;49.736;8.734;2023-10-31T07:24:01;96592.66;;;9.13;100.00
11448;BME280;43755;49.736;8.734;2023-10-31T07:26:04;96597.56;;;9.19;100.00
11448;BME280;43755;49.736;8.734;2023-10-31T07:28:05;96602.00;;;9.18;100.00
11448;BME280;43755;49.736;8.734;2023-10-31T07:30:09;96608.22;;;9.17;100.00
11448;BME280;43755;49.736;8.734;2023-10-31T07:32:10;96607.00;;;9.23;100.00
11448;BME280;43755;49.736;8.734;2023-10-31T07:34:12;96613.13;;;9.23;100.00
11448;BME280;43755;49.736;8.734;2023-10-31T07:36:12;96611.78;;;9.16;100.00
11448;BME280;43755;49.736;8.734;2023-10-31T07:38:14;96623.13;;;9.18;100.00
11448;BME280;43755;49.736;8.734;2023-10-31T07:40:15;96620.56;;;9.17;100.00
11448;BME280;43755;49.736;8.734;2023-10-31T07:42:17;96626.84;;;9.14;100.00
11448;BME280;43755;49.736;8.734;2023-10-31T07:44:18;96634.03;;;9.12;100.00
11448;BME280;43755;49.736;8.734;2023-10-31T07:46:20;96627.53;;;9.18;100.00
11448;BME280;43755;49.736;8.734;2023-10-31T07:48:21;96630.25;;;9.16;100.00
11448;BME280;43755;49.736;8.734;2023-10-31T07:50:23;96631.47;;;9.25;100.00
11448;BME280;43755;49.736;8.734;2023-10-31T07:52:24;96633.56;;;9.20;100.00
11448;BME280;43755;49.736;8.734;2023-10-31T07:54:26;96638.81;;;9.20;100.00
11448;BME280;43755;49.736;8.734;2023-10-31T07:56:28;96631.88;;;9.19;100.00
11448;BME280;43755;49.736;8.734;2023-10-31T07:58:29;96634.41;;;9.20;100.00
11448;BME280;43755;49.736;8.734;2023-10-31T08:00:31;96638.75;;;9.21;100.00
11448;BME280;43755;49.736;8.734;2023-10-31T08:02:34;96635.94;;;9.24;100.00
11448;BME280;43755;49.736;8.734;2023-10-31T08:04:35;96631.88;;;9.19;100.00
11448;BME280;43755;49.736;8.734;2023-10-31T08:06:37;96633.66;;;9.18;100.00
11448;BME280;43755;49.736;8.734;2023-10-31T08:08:38;96645.16;;;9.17;100.00
11448;BME280;43755;49.736;8.734;2023-10-31T08:10:40;96648.06;;;9.13;100.00
11448;BME280;43755;49.736;8.734;2023-10-31T08:12:40;96647.78;;;9.17;100.00
11448;BME280;43755;49.736;8.734;2023-10-31T08:14:41;96649.66;;;9.15;100.00
11448;BME280;43755;49.736;8.734;2023-10-31T08:16:43;96648.38;;;9.22;100.00
11448;BME280;43755;49.736;8.734;2023-10-31T08:18:46;96646.56;;;9.23;100.00
11448;BME280;43755;49.736;8.734;2023-10-31T08:20:48;96658.06;;;9.22;100.00
11448;BME280;43755;49.736;8.734;2023-10-31T08:22:50;96648.84;;;9.29;100.00
11448;BME280;43755;49.736;8.734;2023-10-31T08:24:52;96644.78;;;9.23;100.00
11448;BME280;43755;49.736;8.734;2023-10-31T08:26:53;96646.38;;;9.26;100.00
11448;BME280;43755;49.736;8.734;2023-10-31T08:28:55;96645.28;;;9.30;100.00
11448;BME280;43755;49.736;8.734;2023-10-31T08:30:56;96660.91;;;9.33;100.00
11448;BME280;43755;49.736;8.734;2023-10-31T08:32:57;96649.72;;;9.43;100.00
11448;BME280;43755;49.736;8.734;2023-10-31T08:35:00;96655.84;;;9.44;100.00
11448;BME280;43755;49.736;8.734;2023-10-31T08:37:02;96655.50;;;9.50;100.00
11448;BME280;43755;49.736;8.734;2023-10-31T08:39:03;96661.53;;;9.52;100.00
11448;BME280;43755;49.736;8.734;2023-10-31T08:41:05;96661.19;;;9.58;100.00
11448;BME280;43755;49.736;8.734;2023-10-31T08:43:06;96655.25;;;9.69;100.00
11448;BME280;43755;49.736;8.734;2023-10-31T08:45:08;96666.94;;;9.65;100.00
11448;BME280;43755;49.736;8.734;2023-10-31T08:47:09;96656.84;;;9.71;100.00
11448;BME280;43755;49.736;8.734;2023-10-31T08:49:12;96661.78;;;9.77;100.00
11448;BME280;43755;49.736;8.734;2023-10-31T08:51:15;96664.66;;;9.73;100.00
11448;BME280;43755;49.736;8.734;2023-10-31T08:53:16;96667.78;;;9.79;100.00
11448;BME280;43755;49.736;8.734;2023-10-31T08:55:19;96680.91;;;9.81;100.00
11448;BME280;43755;49.736;8.734;2023-10-31T08:57:22;96681.94;;;9.78;100.00
11448;BME280;43755;49.736;8.734;2023-10-31T08:59:23;96685.91;;;9.85;100.00
11448;BME280;43755;49.736;8.734;2023-10-31T09:01:24;96682.53;;;9.83;100.00
11448;BME280;43755;49.736;8.734;2023-10-31T09:03:26;96695.81;;;9.82;100.00
11448;BME280;43755;49.736;8.734;2023-10-31T09:05:27;96693.19;;;9.82;100.00
11448;BME280;43755;49.736;8.734;2023-10-31T09:07:30;96702.81;;;9.83;100.00
11448;BME280;43755;49.736;8.734;2023-10-31T09:09:31;96707.31;;;9.81;100.00
11448;BME280;43755;49.736;8.734;2023-10-31T09:11:33;96713.25;;;9.84;100.00
11448;BME280;43755;49.736;8.734;2023-10-31T09:13:34;96714.78;;;9.89;100.00
11448;BME280;43755;49.736;8.734;2023-10-31T09:15:36;96719.59;;;9.96;100.00
11448;BME280;43755;49.736;8.734;2023-10-31T09:17:37;96721.38;;;9.96;100.00
11448;BME280;43755;49.736;8.734;2023-10-31T09:19:38;96728.47;;;9.95;100.00
11448;BME280;43755;49.736;8.734;2023-10-31T09:21:39;96728.00;;;10.03;100.00
11448;BME280;43755;49.736;8.734;2023-10-31T09:23:42;96734.03;;;10.05;100.00
11448;BME280;43755;49.736;8.734;2023-10-31T09:25:43;96733.00;;;10.07;100.00
11448;BME280;43755;49.736;8.734;2023-10-31T09:27:44;96734.81;;;10.07;100.00
11448;BME280;43755;49.736;8.734;2023-10-31T09:29:46;96747.06;;;10.08;100.00
11448;BME280;43755;49.736;8.734;2023-10-31T09:31:47;96751.88;;;10.01;100.00
11448;BME280;43755;49.736;8.734;2023-10-31T09:33:49;96749.53;;;10.11;100.00
11448;BME280;43755;49.736;8.734;2023-10-31T09:35:50;96755.19;;;10.05;100.00
11448;BME280;43755;49.736;8.734;2023-10-31T09:37:52;96756.56;;;9.96;100.00
11448;BME280;43755;49.736;8.734;2023-10-31T09:39:55;96754.53;;;10.01;100.00
11448;BME280;43755;49.736;8.734;2023-10-31T09:41:56;96754.34;;;10.04;100.00
11448;BME280;43755;49.736;8.734;2023-10-31T09:43:58;96757.34;;;9.98;100.00
11448;BME280;43755;49.736;8.734;2023-10-31T09:45:59;96751.78;;;10.03;100.00
11448;BME280;43755;49.736;8.734;2023-10-31T09:48:01;96751.41;;;10.09;100.00
11448;BME280;43755;49.736;8.734;2023-10-31T09:50:04;96747.75;;;10.11;100.00
11448;BME280;43755;49.736;8.734;2023-10-31T09:52:05;96750.31;;;10.13;100.00
11448;BME280;43755;49.736;8.734;2023-10-31T09:54:07;96747.97;;;10.22;100.00
11448;BME280;43755;49.736;8.734;2023-10-31T09:56:10;96749.47;;;10.26;100.00
11448;BME280;43755;49.736;8.734;2023-10-31T09:58:12;96750.91;;;10.18;100.00
11448;BME280;43755;49.736;8.734;2023-10-31T10:00:14;96742.03;;;10.19;100.00
11448;BME280;43755;49.736;8.734;2023-10-31T10:02:15;96755.66;;;10.11;100.00
11448;BME280;43755;49.736;8.734;2023-10-31T10:04:17;96751.38;;;10.24;100.00
11448;BME280;43755;49.736;8.734;2023-10-31T10:06:19;96762.03;;;10.23;100.00
11448;BME280;43755;49.736;8.734;2023-10-31T10:08:23;96746.44;;;10.33;100.00
11448;BME280;43755;49.736;8.734;2023-10-31T10:10:25;96749.78;;;10.36;100.00
11448;BME280;43755;49.736;8.734;2023-10-31T10:12:27;96753.06;;;10.40;100.00
11448;BME280;43755;49.736;8.734;2023-10-31T10:14:29;96747.09;;;10.50;100.00
11448;BME280;43755;49.736;8.734;2023-10-31T10:16:32;96747.41;;;10.60;100.00
11448;BME280;43755;49.736;8.734;2023-10-31T10:18:35;96747.41;;;10.60;100.00
11448;BME280;43755;49.736;8.734;2023-10-31T10:20:54;96746.44;;;10.61;100.00
11448;BME280;43755;49.736;8.734;2023-10-31T10:23:03;96741.31;;;10.72;100.00
11448;BME280;43755;49.736;8.734;2023-10-31T10:25:05;96737.47;;;10.78;100.00
11448;BME280;43755;49.736;8.734;2023-10-31T10:27:07;96734.97;;;10.89;100.00
11448;BME280;43755;49.736;8.734;2023-10-31T10:29:10;96739.38;;;11.02;100.00
11448;BME280;43755;49.736;8.734;2023-10-31T10:31:13;96732.88;;;11.21;100.00
11448;BME280;43755;49.736;8.734;2023-10-31T10:33:15;96730.84;;;11.12;100.00
11448;BME280;43755;49.736;8.734;2023-10-31T10:35:17;96741.63;;;11.08;100.00
11448;BME280;43755;49.736;8.734;2023-10-31T10:37:19;96738.72;;;10.99;100.00
11448;BME280;43755;49.736;8.734;2023-10-31T10:39:22;96730.22;;;11.21;100.00
11448;BME280;43755;49.736;8.734;2023-10-31T10:59:30;96743.16;;;11.52;100.00